createdAt,value
2022-09-02T00:02:38.244Z,16.54
2022-09-02T00:05:41.407Z,16.62
2022-09-02T00:08:44.321Z,16.62
2022-09-02T00:11:48.949Z,16.60
2022-09-02T00:14:51.477Z,16.56
2022-09-02T00:17:54.685Z,16.67
2022-09-02T00:21:01.047Z,16.66
2022-09-02T00:24:05.263Z,16.54
2022-09-02T00:27:07.829Z,16.62
2022-09-02T00:30:11.359Z,16.62
2022-09-02T00:33:14.638Z,16.68
2022-09-02T00:36:17.596Z,16.65
2022-09-02T00:39:20.469Z,16.70
2022-09-02T00:42:24.225Z,16.61
2022-09-02T00:45:26.805Z,16.67
2022-09-02T00:48:30.184Z,16.72
2022-09-02T00:51:41.788Z,16.71
2022-09-02T00:54:49.007Z,16.76
2022-09-02T00:57:57.723Z,16.76
2022-09-02T01:01:01.111Z,16.74
2022-09-02T01:04:04.109Z,16.77
2022-09-02T01:07:07.435Z,16.80
2022-09-02T01:10:14.479Z,16.72
2022-09-02T01:13:20.347Z,16.64
2022-09-02T01:16:26.463Z,16.64
2022-09-02T01:19:49.690Z,16.61
2022-09-02T01:22:54.909Z,16.57
2022-09-02T01:25:58.665Z,16.49
2022-09-02T01:29:01.298Z,16.50
2022-09-02T01:32:04.323Z,16.50
2022-09-02T01:35:08.687Z,16.50
2022-09-02T01:38:12.100Z,16.50
2022-09-02T01:41:14.732Z,16.44
2022-09-02T01:44:17.912Z,16.44
2022-09-02T01:47:27.059Z,16.30
2022-09-02T01:50:31.617Z,16.35
2022-09-02T01:53:35.117Z,16.46
2022-09-02T01:56:38.530Z,16.38
2022-09-02T01:59:43.779Z,16.36
2022-09-02T02:02:46.838Z,16.36
2022-09-02T02:05:49.937Z,16.36
2022-09-02T02:08:52.736Z,16.35
2022-09-02T02:11:56.795Z,16.26
2022-09-02T02:15:02.412Z,16.25
2022-09-02T02:18:05.670Z,16.30
2022-09-02T02:21:08.480Z,16.30
2022-09-02T02:24:11.350Z,16.25
2022-09-02T02:27:14.019Z,16.26
2022-09-02T02:30:17.566Z,16.23
2022-09-02T02:33:20.225Z,16.17
2022-09-02T02:36:23.417Z,16.13
2022-09-02T02:39:26.179Z,16.05
2022-09-02T02:42:29.203Z,16.04
2022-09-02T02:45:32.014Z,15.94
2022-09-02T02:48:36.026Z,15.94
2022-09-02T02:51:39.451Z,15.87
2022-09-02T02:54:42.679Z,15.85
2022-09-02T02:57:46.219Z,15.86
2022-09-02T03:00:50.178Z,15.77
2022-09-02T03:03:54.267Z,15.71
2022-09-02T03:06:57.435Z,15.63
2022-09-02T03:10:00.016Z,15.55
2022-09-02T03:13:04.395Z,15.59
2022-09-02T03:16:07.027Z,15.59
2022-09-02T03:19:10.165Z,15.56
2022-09-02T03:22:13.473Z,15.56
2022-09-02T03:25:20.397Z,15.55
2022-09-02T03:28:23.325Z,15.53
2022-09-02T03:31:27.567Z,15.51
2022-09-02T03:34:32.455Z,15.57
2022-09-02T03:37:36.392Z,15.55
2022-09-02T03:40:40.145Z,15.58
2022-09-02T03:43:43.169Z,15.48
2022-09-02T03:46:46.178Z,15.42
2022-09-02T03:49:49.478Z,15.44
2022-09-02T03:52:52.358Z,15.47
2022-09-02T03:55:56.104Z,15.45
2022-09-02T03:59:00.303Z,15.43
2022-09-02T04:02:04.410Z,15.43
2022-09-02T04:05:11.845Z,15.46
2022-09-02T04:08:19.824Z,15.49
2022-09-02T04:11:23.774Z,15.41
2022-09-02T04:14:27.589Z,15.37
2022-09-02T04:17:30.754Z,15.35
2022-09-02T04:20:33.650Z,15.29
2022-09-02T04:23:37.139Z,15.33
2022-09-02T04:26:44.962Z,15.38
2022-09-02T04:29:48.863Z,15.43
2022-09-02T04:32:52.799Z,15.50
2022-09-02T04:35:55.712Z,15.48
2022-09-02T04:38:59.613Z,15.52
2022-09-02T04:42:03.096Z,15.56
2022-09-02T04:45:06.711Z,15.52
2022-09-02T04:48:10.147Z,15.57
2022-09-02T04:51:18.372Z,15.60
2022-09-02T04:54:21.422Z,15.60
2022-09-02T04:57:24.430Z,15.60
2022-09-02T05:00:27.489Z,15.66
2022-09-02T05:03:30.826Z,15.68
2022-09-02T05:06:34.055Z,15.70
2022-09-02T05:09:37.315Z,15.71
2022-09-02T05:12:41.946Z,15.74
2022-09-02T05:15:44.984Z,15.76
2022-09-02T05:18:48.583Z,15.74
2022-09-02T05:21:55.250Z,15.77
2022-09-02T05:24:58.618Z,15.83
2022-09-02T05:28:03.794Z,15.77
2022-09-02T05:31:12.806Z,15.70
2022-09-02T05:34:16.848Z,15.80
2022-09-02T05:37:20.099Z,15.91
2022-09-02T05:40:23.066Z,15.97
2022-09-02T05:43:26.506Z,16.06
2022-09-02T05:46:29.989Z,16.03
2022-09-02T05:49:33.293Z,16.13
2022-09-02T05:52:37.283Z,16.14
2022-09-02T05:55:40.180Z,16.13
2022-09-02T05:58:43.541Z,16.15
2022-09-02T06:01:49.002Z,16.26
2022-09-02T06:04:54.504Z,16.26
2022-09-02T06:08:00.512Z,16.27
2022-09-02T06:11:04.343Z,16.32
2022-09-02T06:14:08.089Z,16.48
2022-09-02T06:17:11.347Z,16.53
2022-09-02T06:20:14.546Z,16.46
2022-09-02T06:23:18.376Z,16.59
2022-09-02T06:26:21.615Z,16.74
2022-09-02T06:29:26.431Z,16.73
2022-09-02T06:32:29.331Z,16.88
2022-09-02T06:35:38.067Z,16.94
2022-09-02T06:38:45.981Z,16.94
2022-09-02T06:41:49.451Z,17.02
2022-09-02T06:44:52.459Z,17.00
2022-09-02T06:47:56.551Z,17.17
2022-09-02T06:50:59.367Z,17.25
2022-09-02T06:54:04.286Z,17.37
2022-09-02T06:57:07.025Z,17.50
2022-09-02T07:00:11.354Z,17.50
2022-09-02T07:03:52.454Z,17.66
2022-09-02T07:06:56.466Z,17.66
2022-09-02T07:10:01.214Z,17.73
2022-09-02T07:13:04.316Z,17.73
2022-09-02T07:16:07.823Z,17.87
2022-09-02T07:19:15.033Z,18.04
2022-09-02T07:22:19.093Z,18.15
2022-09-02T07:25:22.523Z,18.23
2022-09-02T07:28:27.529Z,18.25
2022-09-02T07:31:30.611Z,18.38
2022-09-02T07:34:33.550Z,18.42
2022-09-02T07:37:37.309Z,18.56
2022-09-02T07:40:42.378Z,18.59
2022-09-02T07:43:49.613Z,18.67
2022-09-02T07:46:54.751Z,18.77
2022-09-02T07:53:22.557Z,18.99
2022-09-02T07:56:26.232Z,19.13
2022-09-02T07:59:29.238Z,19.12
2022-09-02T08:02:34.690Z,19.26
2022-09-02T08:05:38.746Z,19.36
2022-09-02T08:08:43.026Z,19.49
2022-09-02T08:11:48.452Z,19.49
2022-09-02T08:14:51.072Z,19.67
2022-09-02T08:17:53.913Z,19.66
2022-09-02T08:20:56.550Z,19.74
2022-09-02T08:24:00.437Z,19.72
2022-09-02T08:27:03.139Z,19.85
2022-09-02T08:30:09.939Z,19.92
2022-09-02T08:33:12.543Z,20.07
2022-09-02T08:36:15.482Z,20.17
2022-09-02T08:39:18.067Z,20.17
2022-09-02T08:42:33.785Z,20.22
2022-09-02T08:45:40.383Z,20.12
2022-09-02T08:49:03.063Z,20.29
2022-09-02T08:52:06.283Z,20.27
2022-09-02T08:55:46.239Z,20.37
2022-09-02T08:58:56.903Z,20.54
2022-09-02T09:02:33.174Z,20.70
2022-09-02T09:05:44.218Z,20.74
2022-09-02T09:08:49.288Z,20.87
2022-09-02T09:12:26.092Z,20.93
2022-09-02T09:16:00.893Z,20.80
2022-09-02T09:19:13.073Z,20.89
2022-09-02T09:22:19.361Z,20.99
2022-09-02T09:25:29.797Z,21.11
2022-09-02T09:28:38.745Z,21.10
2022-09-02T09:31:42.064Z,21.27
2022-09-02T09:34:54.188Z,21.29
2022-09-02T09:37:57.030Z,21.38
2022-09-02T09:41:26.117Z,21.26
2022-09-02T09:44:40.970Z,21.51
2022-09-02T09:47:43.797Z,21.58
2022-09-02T09:50:56.633Z,21.38
2022-09-02T09:54:19.705Z,21.51
2022-09-02T09:57:23.145Z,21.54
2022-09-02T10:00:32.160Z,21.70
2022-09-02T10:03:35.328Z,21.78
2022-09-02T10:06:43.272Z,21.98
2022-09-02T10:09:46.282Z,21.92
2022-09-02T10:12:51.379Z,21.98
2022-09-02T10:16:36.432Z,21.91
2022-09-02T10:19:51.480Z,22.00
2022-09-02T10:23:11.603Z,22.01
2022-09-02T10:26:46.604Z,22.23
2022-09-02T10:29:55.084Z,22.09
2022-09-02T10:33:26.089Z,22.21
2022-09-02T10:36:41.457Z,22.33
2022-09-02T10:40:10.434Z,22.42
2022-09-02T10:43:37.681Z,22.54
2022-09-02T10:47:04.831Z,22.67
2022-09-02T10:50:23.521Z,22.61
2022-09-02T10:53:31.887Z,22.55
2022-09-02T10:57:02.966Z,22.55
2022-09-02T11:00:18.035Z,22.77
2022-09-02T11:03:43.006Z,22.90
2022-09-02T11:07:03.633Z,22.93
2022-09-02T11:10:20.116Z,22.96
2022-09-02T11:13:35.998Z,22.99
2022-09-02T11:16:55.743Z,23.12
2022-09-02T11:20:30.470Z,23.40
2022-09-02T11:23:45.242Z,23.41
2022-09-02T11:27:42.018Z,23.52
2022-09-02T11:30:58.841Z,23.44
2022-09-02T11:34:43.531Z,23.61
2022-09-02T11:37:50.098Z,23.62
2022-09-02T11:41:37.221Z,23.77
2022-09-02T11:44:52.383Z,24.11
2022-09-02T11:48:10.811Z,24.11
2022-09-02T11:51:34.599Z,24.30
2022-09-02T11:54:42.145Z,23.83
2022-09-02T11:57:53.917Z,23.90
2022-09-02T12:01:24.910Z,23.78
2022-09-02T12:07:51.507Z,24.02
2022-09-02T12:11:00.106Z,24.08
2022-09-02T12:14:04.563Z,24.13
2022-09-02T12:17:09.662Z,24.22
2022-09-02T12:20:41.528Z,24.40
2022-09-02T12:23:51.262Z,24.70
2022-09-02T12:26:55.960Z,24.48
2022-09-02T12:29:59.080Z,24.72
2022-09-02T12:33:13.475Z,24.65
2022-09-02T12:36:41.460Z,24.49
2022-09-02T12:39:43.890Z,24.60
2022-09-02T12:42:48.379Z,24.34
2022-09-02T12:45:51.229Z,24.60
2022-09-02T12:49:25.145Z,24.47
2022-09-02T12:52:44.914Z,24.67
2022-09-02T12:56:13.592Z,24.86
2022-09-02T12:59:46.374Z,24.80
2022-09-02T13:03:07.040Z,24.63
2022-09-02T13:06:21.955Z,24.36
2022-09-02T13:10:06.406Z,24.47
2022-09-02T13:13:33.539Z,24.72
2022-09-02T13:16:40.041Z,24.81
2022-09-02T13:20:01.365Z,24.39
2022-09-02T13:23:31.314Z,24.46
2022-09-02T13:26:56.140Z,24.53
2022-09-02T13:30:08.281Z,24.66
2022-09-02T13:33:14.193Z,24.76
2022-09-02T13:36:44.435Z,24.71
2022-09-02T13:39:47.531Z,24.55
2022-09-02T13:42:52.822Z,24.60
2022-09-02T13:46:00.196Z,24.48
2022-09-02T13:49:03.101Z,24.40
2022-09-02T13:52:08.028Z,24.36
2022-09-02T13:55:14.851Z,24.39
2022-09-02T13:58:24.060Z,24.44
2022-09-02T14:01:31.481Z,24.67
2022-09-02T14:04:36.359Z,24.25
2022-09-02T14:07:42.178Z,24.57
2022-09-02T14:10:46.029Z,24.60
2022-09-02T14:13:49.915Z,24.54
2022-09-02T14:16:53.024Z,24.61
2022-09-02T14:20:23.683Z,24.55
2022-09-02T14:23:28.980Z,24.64
2022-09-02T14:26:38.836Z,24.45
2022-09-02T14:29:44.471Z,24.63
2022-09-02T14:32:47.012Z,24.63
2022-09-02T14:36:17.905Z,24.62
2022-09-02T14:39:20.879Z,24.62
2022-09-02T14:42:28.398Z,24.54
2022-09-02T14:45:33.854Z,24.41
2022-09-02T14:48:39.901Z,24.43
2022-09-02T14:51:50.705Z,24.38
2022-09-02T14:54:55.377Z,24.24
2022-09-02T14:58:02.659Z,24.17
2022-09-02T15:01:08.487Z,24.09
2022-09-02T15:04:11.297Z,24.00
2022-09-02T15:07:17.861Z,23.82
2022-09-02T15:10:20.944Z,23.75
2022-09-02T15:13:33.776Z,23.62
2022-09-02T15:16:36.302Z,23.52
2022-09-02T15:19:39.135Z,23.41
2022-09-02T15:22:42.929Z,23.28
2022-09-02T15:25:46.009Z,23.08
2022-09-02T15:28:49.122Z,22.94
2022-09-02T15:31:53.118Z,22.93
2022-09-02T15:34:55.690Z,22.87
2022-09-02T15:37:58.638Z,22.82
2022-09-02T15:41:21.872Z,22.72
2022-09-02T15:44:26.929Z,22.71
2022-09-02T15:47:30.598Z,22.65
2022-09-02T15:50:34.325Z,22.54
2022-09-02T15:53:36.916Z,22.37
2022-09-02T15:56:41.934Z,22.42
2022-09-02T15:59:44.516Z,22.19
2022-09-02T16:02:47.606Z,22.18
2022-09-02T16:05:50.499Z,21.92
2022-09-02T16:08:53.101Z,22.07
2022-09-02T16:11:58.138Z,21.98
2022-09-02T16:15:00.748Z,21.96
2022-09-02T16:18:03.682Z,21.87
2022-09-02T16:21:07.888Z,21.88
2022-09-02T16:24:10.810Z,21.87
2022-09-02T16:27:13.425Z,21.57
2022-09-02T16:30:16.359Z,21.51
2022-09-02T16:33:19.953Z,21.52
2022-09-02T16:36:24.502Z,21.33
2022-09-02T16:39:29.440Z,21.32
2022-09-02T16:42:37.432Z,21.31
2022-09-02T16:45:40.759Z,21.34
2022-09-02T16:48:43.782Z,21.23
2022-09-02T16:51:57.851Z,21.22
2022-09-02T16:55:01.251Z,21.20
2022-09-02T16:58:03.918Z,21.08
2022-09-02T17:01:08.317Z,21.03
2022-09-02T17:04:10.851Z,20.97
2022-09-02T17:07:14.139Z,20.97
2022-09-02T17:10:17.783Z,20.92
2022-09-02T17:13:20.749Z,20.88
2022-09-02T17:16:25.719Z,20.80
2022-09-02T17:19:32.470Z,20.74
2022-09-02T17:22:35.212Z,20.64
2022-09-02T17:25:37.969Z,20.66
2022-09-02T17:28:46.634Z,20.63
2022-09-02T17:31:49.444Z,20.57
2022-09-02T17:34:52.073Z,20.48
2022-09-02T17:37:54.892Z,20.45
2022-09-02T17:41:16.508Z,20.38
2022-09-02T17:44:19.438Z,20.36
2022-09-02T17:47:22.727Z,20.28
2022-09-02T17:50:25.587Z,20.22
2022-09-02T17:53:28.539Z,20.10
2022-09-02T17:56:40.661Z,20.05
2022-09-02T18:00:12.426Z,20.01
2022-09-02T18:03:22.271Z,19.95
2022-09-02T18:06:31.089Z,19.89
2022-09-02T18:09:35.358Z,19.82
2022-09-02T18:12:37.935Z,19.76
2022-09-02T18:16:03.508Z,19.80
2022-09-02T18:19:32.435Z,19.70
2022-09-02T18:22:53.057Z,19.67
2022-09-02T18:26:14.242Z,19.58
2022-09-02T18:29:32.339Z,19.49
2022-09-02T18:33:08.795Z,19.45
2022-09-02T18:36:17.508Z,19.40
2022-09-02T18:39:35.217Z,19.37
2022-09-02T18:42:56.405Z,19.29
2022-09-02T18:46:01.156Z,19.23
2022-09-02T18:49:04.631Z,19.17
2022-09-02T18:52:10.488Z,19.09
2022-09-02T18:55:16.615Z,19.05
2022-09-02T18:58:47.474Z,19.01
2022-09-02T19:01:56.378Z,19.02
2022-09-02T19:05:01.504Z,18.88
2022-09-02T19:08:29.977Z,18.85
2022-09-02T19:11:34.008Z,18.77
2022-09-02T19:14:39.147Z,18.73
2022-09-02T19:17:42.025Z,18.64
2022-09-02T19:20:44.924Z,18.61
2022-09-02T19:23:48.225Z,18.55
2022-09-02T19:26:53.589Z,18.52
2022-09-02T19:30:01.873Z,18.50
2022-09-02T19:33:09.741Z,18.42
2022-09-02T19:36:12.460Z,18.34
2022-09-02T19:39:16.041Z,18.29
2022-09-02T19:42:24.312Z,18.25
2022-09-02T19:45:29.340Z,18.15
2022-09-02T19:48:32.135Z,18.08
2022-09-02T19:51:35.017Z,18.03
2022-09-02T19:54:37.672Z,18.00
2022-09-02T19:57:41.550Z,17.93
2022-09-02T20:00:44.830Z,17.86
2022-09-02T20:03:47.727Z,17.79
2022-09-02T20:06:51.116Z,17.70
2022-09-02T20:09:54.499Z,17.62
2022-09-02T20:12:58.805Z,17.55
2022-09-02T20:16:03.407Z,17.49
2022-09-02T20:19:06.331Z,17.43
2022-09-02T20:22:13.537Z,17.40
2022-09-02T20:25:16.518Z,17.32
2022-09-02T20:28:25.192Z,17.21
2022-09-02T20:31:36.939Z,17.23
2022-09-02T20:34:50.006Z,17.18
2022-09-02T20:38:17.918Z,17.17
2022-09-02T20:41:29.251Z,17.14
2022-09-02T20:44:37.939Z,17.05
2022-09-02T20:48:01.166Z,17.03
2022-09-02T20:51:36.128Z,17.04
2022-09-02T20:54:48.648Z,17.00
2022-09-02T20:58:19.472Z,16.97
2022-09-02T21:01:26.024Z,16.93
2022-09-02T21:04:35.221Z,16.88
2022-09-02T21:07:45.629Z,16.90
2022-09-02T21:10:52.203Z,16.81
2022-09-02T21:14:08.280Z,16.78
2022-09-02T21:17:16.767Z,16.71
2022-09-02T21:20:38.482Z,16.68
2022-09-02T21:23:49.203Z,16.60
2022-09-02T21:26:56.792Z,16.54
2022-09-02T21:30:12.170Z,16.54
2022-09-02T21:33:16.960Z,16.51
2022-09-02T21:36:25.546Z,16.42
2022-09-02T21:39:31.539Z,16.38
2022-09-02T21:43:24.998Z,16.37
2022-09-02T21:46:42.782Z,16.28
2022-09-02T21:50:09.286Z,16.25
2022-09-02T21:53:12.655Z,16.18
2022-09-02T21:56:40.845Z,16.17
2022-09-02T22:00:13.033Z,16.11
2022-09-02T22:03:40.193Z,16.07
2022-09-02T22:06:46.023Z,15.99
2022-09-02T22:10:05.959Z,15.88
2022-09-02T22:13:09.121Z,15.85
2022-09-02T22:16:13.480Z,15.79
2022-09-02T22:19:17.336Z,15.75
2022-09-02T22:22:24.524Z,15.69
2022-09-02T22:25:27.556Z,15.62
2022-09-02T22:28:37.855Z,15.60
2022-09-02T22:31:42.732Z,15.58
2022-09-02T22:35:25.185Z,15.54
2022-09-02T22:38:46.333Z,15.49
2022-09-02T22:41:56.210Z,15.47
2022-09-02T22:45:41.323Z,15.44
2022-09-02T22:49:26.413Z,15.43
2022-09-02T22:52:47.289Z,15.36
2022-09-02T22:55:59.463Z,15.34
2022-09-02T22:59:24.234Z,15.29
2022-09-02T23:02:39.247Z,15.27
2022-09-02T23:06:01.203Z,15.23
2022-09-02T23:09:08.840Z,15.15
2022-09-02T23:12:14.628Z,15.12
2022-09-02T23:15:24.793Z,15.03
2022-09-02T23:19:13.022Z,14.98
2022-09-02T23:22:20.762Z,15.03
2022-09-02T23:25:50.213Z,15.02
2022-09-02T23:29:24.265Z,14.98
2022-09-02T23:32:43.616Z,14.91
2022-09-02T23:35:56.266Z,14.90
2022-09-02T23:39:18.936Z,14.87
2022-09-02T23:42:22.123Z,14.80
2022-09-02T23:45:30.319Z,14.77
2022-09-02T23:48:44.508Z,14.77
2022-09-02T23:51:53.595Z,14.75
2022-09-02T23:55:04.332Z,14.71
2022-09-02T23:58:31.160Z,14.69
